sensor_id;sensor_type;location;lat;lon;timestamp;temperature;humidity
39899;DHT22;25571;47.876;10.642;2023-02-01T00:01:48;5.40;93.90
39899;DHT22;25571;47.876;10.642;2023-02-01T00:04:14;5.40;93.80
39899;DHT22;25571;47.876;10.642;2023-02-01T00:06:39;5.40;93.90
39899;DHT22;25571;47.876;10.642;2023-02-01T00:09:05;5.40;93.90
39899;DHT22;25571;47.876;10.642;2023-02-01T00:11:30;5.40;93.90
39899;DHT22;25571;47.876;10.642;2023-02-01T00:13:57;5.40;93.90
39899;DHT22;25571;47.876;10.642;2023-02-01T00:16:27;5.40;93.80
39899;DHT22;25571;47.876;10.642;2023-02-01T00:19:13;5.40;93.90
39899;DHT22;25571;47.876;10.642;2023-02-01T00:21:39;5.40;93.80
39899;DHT22;25571;47.876;10.642;2023-02-01T00:24:06;5.50;93.70
39899;DHT22;25571;47.876;10.642;2023-02-01T00:26:40;5.50;93.90
39899;DHT22;25571;47.876;10.642;2023-02-01T00:29:11;5.40;94.00
39899;DHT22;25571;47.876;10.642;2023-02-01T00:31:37;5.40;94.00
39899;DHT22;25571;47.876;10.642;2023-02-01T00:34:03;5.40;94.30
39899;DHT22;25571;47.876;10.642;2023-02-01T00:36:29;5.40;94.30
39899;DHT22;25571;47.876;10.642;2023-02-01T00:38:55;5.40;94.50
39899;DHT22;25571;47.876;10.642;2023-02-01T00:41:21;5.30;94.70
39899;DHT22;25571;47.876;10.642;2023-02-01T00:43:48;5.30;94.90
39899;DHT22;25571;47.876;10.642;2023-02-01T00:46:15;5.30;95.00
39899;DHT22;25571;47.876;10.642;2023-02-01T00:48:41;5.30;95.10
39899;DHT22;25571;47.876;10.642;2023-02-01T00:51:09;5.30;95.20
39899;DHT22;25571;47.876;10.642;2023-02-01T00:53:36;5.30;95.20
39899;DHT22;25571;47.876;10.642;2023-02-01T00:56:02;5.30;95.40
39899;DHT22;25571;47.876;10.642;2023-02-01T00:58:28;5.20;95.40
39899;DHT22;25571;47.876;10.642;2023-02-01T01:01:05;5.20;95.40
39899;DHT22;25571;47.876;10.642;2023-02-01T01:03:32;5.20;95.50
39899;DHT22;25571;47.876;10.642;2023-02-01T01:06:04;5.20;95.60
39899;DHT22;25571;47.876;10.642;2023-02-01T01:08:30;5.20;95.60
39899;DHT22;25571;47.876;10.642;2023-02-01T01:10:56;5.20;95.60
39899;DHT22;25571;47.876;10.642;2023-02-01T01:13:21;5.20;95.70
39899;DHT22;25571;47.876;10.642;2023-02-01T01:15:47;5.20;95.90
39899;DHT22;25571;47.876;10.642;2023-02-01T01:18:13;5.20;96.00
39899;DHT22;25571;47.876;10.642;2023-02-01T01:20:40;5.20;95.90
39899;DHT22;25571;47.876;10.642;2023-02-01T01:23:07;5.20;96.10
39899;DHT22;25571;47.876;10.642;2023-02-01T01:25:36;5.20;96.10
39899;DHT22;25571;47.876;10.642;2023-02-01T01:28:02;5.20;96.30
39899;DHT22;25571;47.876;10.642;2023-02-01T01:30:27;5.20;96.40
39899;DHT22;25571;47.876;10.642;2023-02-01T01:32:53;5.20;96.20
39899;DHT22;25571;47.876;10.642;2023-02-01T01:35:19;5.20;96.30
39899;DHT22;25571;47.876;10.642;2023-02-01T01:37:44;5.20;96.20
39899;DHT22;25571;47.876;10.642;2023-02-01T01:40:10;5.20;96.20
39899;DHT22;25571;47.876;10.642;2023-02-01T01:42:38;5.20;96.60
39899;DHT22;25571;47.876;10.642;2023-02-01T01:45:27;5.10;96.30
39899;DHT22;25571;47.876;10.642;2023-02-01T01:48:00;5.10;96.30
39899;DHT22;25571;47.876;10.642;2023-02-01T01:50:30;5.20;96.30
39899;DHT22;25571;47.876;10.642;2023-02-01T01:52:58;5.20;96.40
39899;DHT22;25571;47.876;10.642;2023-02-01T01:55:26;5.20;96.30
39899;DHT22;25571;47.876;10.642;2023-02-01T01:58:00;5.20;96.30
39899;DHT22;25571;47.876;10.642;2023-02-01T02:00:27;5.10;96.10
39899;DHT22;25571;47.876;10.642;2023-02-01T02:02:59;5.20;96.20
39899;DHT22;25571;47.876;10.642;2023-02-01T02:05:26;5.20;96.20
39899;DHT22;25571;47.876;10.642;2023-02-01T02:07:53;5.20;96.10
39899;DHT22;25571;47.876;10.642;2023-02-01T02:10:22;5.20;96.10
39899;DHT22;25571;47.876;10.642;2023-02-01T02:13:07;5.20;96.00
39899;DHT22;25571;47.876;10.642;2023-02-01T02:15:34;5.20;96.00
39899;DHT22;25571;47.876;10.642;2023-02-01T02:18:12;5.20;96.00
39899;DHT22;25571;47.876;10.642;2023-02-01T02:21:09;5.20;95.90
39899;DHT22;25571;47.876;10.642;2023-02-01T02:26:51;5.20;95.90
39899;DHT22;25571;47.876;10.642;2023-02-01T02:32:28;5.10;95.80
39899;DHT22;25571;47.876;10.642;2023-02-01T02:40:36;5.20;96.00
39899;DHT22;25571;47.876;10.642;2023-02-01T02:46:04;5.20;96.00
39899;DHT22;25571;47.876;10.642;2023-02-01T02:51:54;5.20;96.10
39899;DHT22;25571;47.876;10.642;2023-02-01T02:54:42;5.20;96.30
39899;DHT22;25571;47.876;10.642;2023-02-01T02:57:36;5.20;96.30
39899;DHT22;25571;47.876;10.642;2023-02-01T03:00:21;5.20;96.40
39899;DHT22;25571;47.876;10.642;2023-02-01T03:03:07;5.20;96.50
39899;DHT22;25571;47.876;10.642;2023-02-01T03:05:52;5.10;96.60
39899;DHT22;25571;47.876;10.642;2023-02-01T03:11:06;5.20;96.80
39899;DHT22;25571;47.876;10.642;2023-02-01T03:16:40;5.20;97.00
39899;DHT22;25571;47.876;10.642;2023-02-01T03:19:56;5.20;97.00
39899;DHT22;25571;47.876;10.642;2023-02-01T03:22:06;5.20;96.90
39899;DHT22;25571;47.876;10.642;2023-02-01T03:24:52;5.20;96.70
39899;DHT22;25571;47.876;10.642;2023-02-01T03:27:30;5.20;96.80
39899;DHT22;25571;47.876;10.642;2023-02-01T03:30:37;5.10;96.90
39899;DHT22;25571;47.876;10.642;2023-02-01T03:33:04;5.20;96.90
39899;DHT22;25571;47.876;10.642;2023-02-01T03:40:53;5.20;97.10
39899;DHT22;25571;47.876;10.642;2023-02-01T03:43:22;5.20;96.60
39899;DHT22;25571;47.876;10.642;2023-02-01T03:45:53;5.20;96.40
39899;DHT22;25571;47.876;10.642;2023-02-01T03:48:20;5.20;96.50
39899;DHT22;25571;47.876;10.642;2023-02-01T03:50:50;5.20;96.50
39899;DHT22;25571;47.876;10.642;2023-02-01T03:53:19;5.30;96.30
39899;DHT22;25571;47.876;10.642;2023-02-01T03:55:46;5.30;96.30
39899;DHT22;25571;47.876;10.642;2023-02-01T03:58:18;5.20;96.20
39899;DHT22;25571;47.876;10.642;2023-02-01T04:00:52;5.20;96.30
39899;DHT22;25571;47.876;10.642;2023-02-01T04:03:19;5.20;96.30
39899;DHT22;25571;47.876;10.642;2023-02-01T04:05:44;5.20;96.20
39899;DHT22;25571;47.876;10.642;2023-02-01T04:08:10;5.30;96.10
39899;DHT22;25571;47.876;10.642;2023-02-01T04:10:35;5.20;96.30
39899;DHT22;25571;47.876;10.642;2023-02-01T04:13:01;5.20;96.50
39899;DHT22;25571;47.876;10.642;2023-02-01T04:15:26;5.20;96.50
39899;DHT22;25571;47.876;10.642;2023-02-01T04:17:52;5.20;96.40
39899;DHT22;25571;47.876;10.642;2023-02-01T04:20:18;5.20;96.40
39899;DHT22;25571;47.876;10.642;2023-02-01T04:22:43;5.20;96.60
39899;DHT22;25571;47.876;10.642;2023-02-01T04:25:09;5.20;96.60
39899;DHT22;25571;47.876;10.642;2023-02-01T04:27:35;5.20;96.60
39899;DHT22;25571;47.876;10.642;2023-02-01T04:30:01;5.30;96.70
39899;DHT22;25571;47.876;10.642;2023-02-01T04:32:26;5.20;96.80
39899;DHT22;25571;47.876;10.642;2023-02-01T04:34:52;5.20;96.80
39899;DHT22;25571;47.876;10.642;2023-02-01T04:37:17;5.30;96.90
39899;DHT22;25571;47.876;10.642;2023-02-01T04:39:43;5.20;96.60
39899;DHT22;25571;47.876;10.642;2023-02-01T04:42:08;5.20;96.80
39899;DHT22;25571;47.876;10.642;2023-02-01T04:44:34;5.20;96.60
39899;DHT22;25571;47.876;10.642;2023-02-01T04:47:02;5.20;96.70
39899;DHT22;25571;47.876;10.642;2023-02-01T04:49:27;5.20;96.50
39899;DHT22;25571;47.876;10.642;2023-02-01T04:51:53;5.20;96.50
39899;DHT22;25571;47.876;10.642;2023-02-01T04:54:19;5.20;96.30
39899;DHT22;25571;47.876;10.642;2023-02-01T04:56:44;5.20;96.10
39899;DHT22;25571;47.876;10.642;2023-02-01T04:59:11;5.20;96.20
39899;DHT22;25571;47.876;10.642;2023-02-01T05:01:37;5.20;96.20
39899;DHT22;25571;47.876;10.642;2023-02-01T05:04:02;5.20;96.10
39899;DHT22;25571;47.876;10.642;2023-02-01T05:06:28;5.20;96.20
39899;DHT22;25571;47.876;10.642;2023-02-01T05:08:54;5.20;96.30
39899;DHT22;25571;47.876;10.642;2023-02-01T05:11:19;5.20;96.30
39899;DHT22;25571;47.876;10.642;2023-02-01T05:14:03;5.20;96.20
39899;DHT22;25571;47.876;10.642;2023-02-01T05:16:29;5.20;96.20
39899;DHT22;25571;47.876;10.642;2023-02-01T05:18:55;5.20;96.20
39899;DHT22;25571;47.876;10.642;2023-02-01T05:21:20;5.20;96.20
39899;DHT22;25571;47.876;10.642;2023-02-01T05:23:46;5.20;96.20
39899;DHT22;25571;47.876;10.642;2023-02-01T05:26:30;5.20;96.10
39899;DHT22;25571;47.876;10.642;2023-02-01T05:28:56;5.10;96.30
39899;DHT22;25571;47.876;10.642;2023-02-01T05:31:23;5.10;96.20
39899;DHT22;25571;47.876;10.642;2023-02-01T05:33:48;5.10;96.30
39899;DHT22;25571;47.876;10.642;2023-02-01T05:36:14;5.10;96.30
39899;DHT22;25571;47.876;10.642;2023-02-01T05:38:40;5.10;96.20
39899;DHT22;25571;47.876;10.642;2023-02-01T05:41:06;5.10;96.20
39899;DHT22;25571;47.876;10.642;2023-02-01T05:43:32;5.10;96.00
39899;DHT22;25571;47.876;10.642;2023-02-01T05:45:58;5.10;96.10
39899;DHT22;25571;47.876;10.642;2023-02-01T05:48:24;5.10;96.00
39899;DHT22;25571;47.876;10.642;2023-02-01T05:50:50;5.10;96.00
39899;DHT22;25571;47.876;10.642;2023-02-01T05:53:15;5.00;95.70
39899;DHT22;25571;47.876;10.642;2023-02-01T05:55:42;5.00;95.90
39899;DHT22;25571;47.876;10.642;2023-02-01T05:58:07;4.90;96.00
39899;DHT22;25571;47.876;10.642;2023-02-01T06:00:33;5.00;96.20
39899;DHT22;25571;47.876;10.642;2023-02-01T06:02:58;5.00;96.10
39899;DHT22;25571;47.876;10.642;2023-02-01T06:05:24;5.00;96.20
39899;DHT22;25571;47.876;10.642;2023-02-01T06:07:50;5.00;96.20
39899;DHT22;25571;47.876;10.642;2023-02-01T06:10:17;5.00;96.10
39899;DHT22;25571;47.876;10.642;2023-02-01T06:12:43;5.00;96.20
39899;DHT22;25571;47.876;10.642;2023-02-01T06:15:11;5.00;96.20
39899;DHT22;25571;47.876;10.642;2023-02-01T06:17:36;4.90;96.30
39899;DHT22;25571;47.876;10.642;2023-02-01T06:20:04;5.00;96.40
39899;DHT22;25571;47.876;10.642;2023-02-01T06:22:32;5.00;96.20
39899;DHT22;25571;47.876;10.642;2023-02-01T06:24:57;5.00;96.20
39899;DHT22;25571;47.876;10.642;2023-02-01T06:27:24;5.00;96.20
39899;DHT22;25571;47.876;10.642;2023-02-01T06:29:50;5.00;96.20
39899;DHT22;25571;47.876;10.642;2023-02-01T06:32:16;5.10;96.20
39899;DHT22;25571;47.876;10.642;2023-02-01T06:34:43;5.00;96.30
39899;DHT22;25571;47.876;10.642;2023-02-01T06:37:09;5.00;96.30
39899;DHT22;25571;47.876;10.642;2023-02-01T06:39:36;5.00;96.30
39899;DHT22;25571;47.876;10.642;2023-02-01T06:42:02;5.00;96.50
39899;DHT22;25571;47.876;10.642;2023-02-01T06:44:28;5.10;96.40
39899;DHT22;25571;47.876;10.642;2023-02-01T06:46:53;5.00;96.40
39899;DHT22;25571;47.876;10.642;2023-02-01T06:49:20;5.00;96.50
39899;DHT22;25571;47.876;10.642;2023-02-01T06:51:45;5.10;96.40
39899;DHT22;25571;47.876;10.642;2023-02-01T06:54:11;5.00;96.50
39899;DHT22;25571;47.876;10.642;2023-02-01T06:56:37;5.10;96.60
39899;DHT22;25571;47.876;10.642;2023-02-01T06:59:06;5.00;96.60
39899;DHT22;25571;47.876;10.642;2023-02-01T07:01:32;5.00;96.50
39899;DHT22;25571;47.876;10.642;2023-02-01T07:03:57;5.00;96.50
39899;DHT22;25571;47.876;10.642;2023-02-01T07:06:23;5.00;96.70
39899;DHT22;25571;47.876;10.642;2023-02-01T07:08:49;5.00;96.60
39899;DHT22;25571;47.876;10.642;2023-02-01T07:11:16;5.00;96.60
39899;DHT22;25571;47.876;10.642;2023-02-01T07:13:42;4.90;96.70
39899;DHT22;25571;47.876;10.642;2023-02-01T07:16:15;4.90;96.70
39899;DHT22;25571;47.876;10.642;2023-02-01T07:18:41;4.90;96.70
39899;DHT22;25571;47.876;10.642;2023-02-01T07:21:07;4.90;96.80
39899;DHT22;25571;47.876;10.642;2023-02-01T07:23:32;5.00;96.80
39899;DHT22;25571;47.876;10.642;2023-02-01T07:26:00;4.90;97.00
39899;DHT22;25571;47.876;10.642;2023-02-01T07:28:28;4.90;97.00
39899;DHT22;25571;47.876;10.642;2023-02-01T07:30:54;4.90;97.10
39899;DHT22;25571;47.876;10.642;2023-02-01T07:33:21;4.90;97.10
39899;DHT22;25571;47.876;10.642;2023-02-01T07:35:48;4.90;97.00
39899;DHT22;25571;47.876;10.642;2023-02-01T07:38:15;4.90;97.10
39899;DHT22;25571;47.876;10.642;2023-02-01T07:40:41;4.90;97.00
39899;DHT22;25571;47.876;10.642;2023-02-01T07:43:07;4.90;97.10
39899;DHT22;25571;47.876;10.642;2023-02-01T07:45:34;5.00;97.10
39899;DHT22;25571;47.876;10.642;2023-02-01T07:47:59;5.00;97.00
39899;DHT22;25571;47.876;10.642;2023-02-01T07:50:25;5.00;97.00
39899;DHT22;25571;47.876;10.642;2023-02-01T07:52:51;5.00;96.90
39899;DHT22;25571;47.876;10.642;2023-02-01T07:55:16;5.00;97.00
39899;DHT22;25571;47.876;10.642;2023-02-01T07:57:42;5.00;97.10
39899;DHT22;25571;47.876;10.642;2023-02-01T08:00:08;5.00;97.10
39899;DHT22;25571;47.876;10.642;2023-02-01T08:02:53;4.90;97.20
39899;DHT22;25571;47.876;10.642;2023-02-01T08:05:18;5.00;97.10
39899;DHT22;25571;47.876;10.642;2023-02-01T08:07:48;5.00;97.00
39899;DHT22;25571;47.876;10.642;2023-02-01T08:10:14;5.00;97.00
39899;DHT22;25571;47.876;10.642;2023-02-01T08:12:40;5.00;97.20
39899;DHT22;25571;47.876;10.642;2023-02-01T08:15:06;5.00;97.20
39899;DHT22;25571;47.876;10.642;2023-02-01T08:17:32;5.00;97.10
39899;DHT22;25571;47.876;10.642;2023-02-01T08:19:58;5.10;97.20
39899;DHT22;25571;47.876;10.642;2023-02-01T08:22:23;5.00;97.20
39899;DHT22;25571;47.876;10.642;2023-02-01T08:24:49;5.10;97.30
39899;DHT22;25571;47.876;10.642;2023-02-01T08:27:14;5.10;97.30
39899;DHT22;25571;47.876;10.642;2023-02-01T08:29:40;5.20;97.20
39899;DHT22;25571;47.876;10.642;2023-02-01T08:32:06;5.10;97.20
39899;DHT22;25571;47.876;10.642;2023-02-01T08:34:31;5.10;97.20
39899;DHT22;25571;47.876;10.642;2023-02-01T08:36:57;5.10;97.40
39899;DHT22;25571;47.876;10.642;2023-02-01T08:39:23;5.10;97.40
39899;DHT22;25571;47.876;10.642;2023-02-01T08:41:49;5.20;97.50
39899;DHT22;25571;47.876;10.642;2023-02-01T08:44:35;5.20;97.50
39899;DHT22;25571;47.876;10.642;2023-02-01T08:47:02;5.20;97.50
39899;DHT22;25571;47.876;10.642;2023-02-01T08:49:27;5.20;97.40
39899;DHT22;25571;47.876;10.642;2023-02-01T08:51:53;5.20;97.40
39899;DHT22;25571;47.876;10.642;2023-02-01T08:54:19;5.20;97.40
39899;DHT22;25571;47.876;10.642;2023-02-01T08:56:45;5.20;97.50
39899;DHT22;25571;47.876;10.642;2023-02-01T08:59:11;5.20;97.70
39899;DHT22;25571;47.876;10.642;2023-02-01T09:01:36;5.30;97.70
39899;DHT22;25571;47.876;10.642;2023-02-01T09:04:02;5.30;97.60
39899;DHT22;25571;47.876;10.642;2023-02-01T09:06:27;5.30;97.70
39899;DHT22;25571;47.876;10.642;2023-02-01T09:08:53;5.40;97.80
39899;DHT22;25571;47.876;10.642;2023-02-01T09:11:19;5.40;97.90
39899;DHT22;25571;47.876;10.642;2023-02-01T09:13:45;5.40;97.90
39899;DHT22;25571;47.876;10.642;2023-02-01T09:16:11;5.40;97.90
39899;DHT22;25571;47.876;10.642;2023-02-01T09:18:36;5.40;98.00
39899;DHT22;25571;47.876;10.642;2023-02-01T09:21:06;5.40;98.10
39899;DHT22;25571;47.876;10.642;2023-02-01T09:23:32;5.40;98.10
39899;DHT22;25571;47.876;10.642;2023-02-01T09:25:59;5.40;98.20
39899;DHT22;25571;47.876;10.642;2023-02-01T09:28:25;5.40;98.20
39899;DHT22;25571;47.876;10.642;2023-02-01T09:30:58;5.40;98.20
39899;DHT22;25571;47.876;10.642;2023-02-01T09:33:25;5.40;98.30
39899;DHT22;25571;47.876;10.642;2023-02-01T09:35:56;5.50;98.20
39899;DHT22;25571;47.876;10.642;2023-02-01T09:38:22;5.40;98.20
39899;DHT22;25571;47.876;10.642;2023-02-01T09:40:48;5.40;98.10
39899;DHT22;25571;47.876;10.642;2023-02-01T09:46:03;5.50;98.20
39899;DHT22;25571;47.876;10.642;2023-02-01T09:48:37;5.40;98.00
39899;DHT22;25571;47.876;10.642;2023-02-01T09:51:10;5.40;98.10
39899;DHT22;25571;47.876;10.642;2023-02-01T09:53:41;5.40;98.10
39899;DHT22;25571;47.876;10.642;2023-02-01T09:56:24;5.50;98.10
39899;DHT22;25571;47.876;10.642;2023-02-01T10:01:41;5.60;98.00
39899;DHT22;25571;47.876;10.642;2023-02-01T10:04:11;5.60;98.10
39899;DHT22;25571;47.876;10.642;2023-02-01T10:06:43;5.70;98.00
39899;DHT22;25571;47.876;10.642;2023-02-01T10:12:40;5.70;97.80
39899;DHT22;25571;47.876;10.642;2023-02-01T10:15:22;5.80;97.60
39899;DHT22;25571;47.876;10.642;2023-02-01T10:21:26;5.90;97.10
39899;DHT22;25571;47.876;10.642;2023-02-01T10:25:56;5.80;97.00
39899;DHT22;25571;47.876;10.642;2023-02-01T10:28:24;5.80;97.20
39899;DHT22;25571;47.876;10.642;2023-02-01T10:30:57;5.80;97.00
39899;DHT22;25571;47.876;10.642;2023-02-01T10:33:26;5.90;97.00
39899;DHT22;25571;47.876;10.642;2023-02-01T10:38:38;6.00;97.00
39899;DHT22;25571;47.876;10.642;2023-02-01T10:41:17;6.00;96.80
39899;DHT22;25571;47.876;10.642;2023-02-01T10:43:48;6.00;96.60
39899;DHT22;25571;47.876;10.642;2023-02-01T10:46:16;6.00;96.80
39899;DHT22;25571;47.876;10.642;2023-02-01T10:48:42;6.10;96.50
39899;DHT22;25571;47.876;10.642;2023-02-01T10:51:35;6.00;96.60
39899;DHT22;25571;47.876;10.642;2023-02-01T10:54:16;6.10;96.50
39899;DHT22;25571;47.876;10.642;2023-02-01T10:56:43;6.10;96.30
39899;DHT22;25571;47.876;10.642;2023-02-01T10:59:24;6.10;96.40
39899;DHT22;25571;47.876;10.642;2023-02-01T11:02:00;6.20;96.30
39899;DHT22;25571;47.876;10.642;2023-02-01T11:04:33;6.30;96.30
39899;DHT22;25571;47.876;10.642;2023-02-01T11:07:17;6.20;96.00
39899;DHT22;25571;47.876;10.642;2023-02-01T11:09:50;6.20;96.00
39899;DHT22;25571;47.876;10.642;2023-02-01T11:12:32;6.20;96.00
39899;DHT22;25571;47.876;10.642;2023-02-01T11:15:20;6.20;96.00
39899;DHT22;25571;47.876;10.642;2023-02-01T11:17:48;6.20;96.00
39899;DHT22;25571;47.876;10.642;2023-02-01T11:20:39;6.20;95.90
39899;DHT22;25571;47.876;10.642;2023-02-01T11:23:11;6.20;96.00
39899;DHT22;25571;47.876;10.642;2023-02-01T11:25:39;6.20;96.10
39899;DHT22;25571;47.876;10.642;2023-02-01T11:28:13;6.20;96.00
39899;DHT22;25571;47.876;10.642;2023-02-01T11:30:41;6.20;95.90
39899;DHT22;25571;47.876;10.642;2023-02-01T11:33:17;6.20;96.00
39899;DHT22;25571;47.876;10.642;2023-02-01T11:35:44;6.20;96.30
39899;DHT22;25571;47.876;10.642;2023-02-01T11:38:27;6.30;96.40
39899;DHT22;25571;47.876;10.642;2023-02-01T11:40:53;6.40;96.20
39899;DHT22;25571;47.876;10.642;2023-02-01T11:43:27;6.40;95.90
39899;DHT22;25571;47.876;10.642;2023-02-01T11:45:59;6.40;95.80
39899;DHT22;25571;47.876;10.642;2023-02-01T11:48:30;6.50;95.80
39899;DHT22;25571;47.876;10.642;2023-02-01T12:08:13;6.70;96.00
39899;DHT22;25571;47.876;10.642;2023-02-01T12:13:53;6.70;95.70
39899;DHT22;25571;47.876;10.642;2023-02-01T12:19:06;6.80;95.50
39899;DHT22;25571;47.876;10.642;2023-02-01T12:29:50;6.70;96.00
39899;DHT22;25571;47.876;10.642;2023-02-01T12:43:50;6.50;95.60
39899;DHT22;25571;47.876;10.642;2023-02-01T12:46:31;6.60;95.70
39899;DHT22;25571;47.876;10.642;2023-02-01T12:49:30;6.50;95.60
39899;DHT22;25571;47.876;10.642;2023-02-01T12:52:06;6.60;95.40
39899;DHT22;25571;47.876;10.642;2023-02-01T12:54:47;6.50;95.40
39899;DHT22;25571;47.876;10.642;2023-02-01T12:57:36;6.50;95.50
39899;DHT22;25571;47.876;10.642;2023-02-01T13:00:22;6.50;94.90
39899;DHT22;25571;47.876;10.642;2023-02-01T13:03:02;6.50;94.90
39899;DHT22;25571;47.876;10.642;2023-02-01T13:05:50;6.40;95.00
39899;DHT22;25571;47.876;10.642;2023-02-01T13:08:36;6.40;94.90
39899;DHT22;25571;47.876;10.642;2023-02-01T13:11:39;6.50;95.00
39899;DHT22;25571;47.876;10.642;2023-02-01T13:17:05;6.40;94.50
39899;DHT22;25571;47.876;10.642;2023-02-01T13:20:06;6.40;94.50
39899;DHT22;25571;47.876;10.642;2023-02-01T13:22:40;6.40;94.50
39899;DHT22;25571;47.876;10.642;2023-02-01T13:25:16;6.50;94.50
39899;DHT22;25571;47.876;10.642;2023-02-01T13:27:43;6.50;94.50
39899;DHT22;25571;47.876;10.642;2023-02-01T13:33:00;6.60;94.40
39899;DHT22;25571;47.876;10.642;2023-02-01T13:38:30;6.60;94.40
39899;DHT22;25571;47.876;10.642;2023-02-01T13:41:23;6.60;94.30
39899;DHT22;25571;47.876;10.642;2023-02-01T13:43:54;6.60;94.50
39899;DHT22;25571;47.876;10.642;2023-02-01T13:46:20;6.50;94.40
39899;DHT22;25571;47.876;10.642;2023-02-01T13:48:54;6.50;94.50
39899;DHT22;25571;47.876;10.642;2023-02-01T13:51:42;6.50;94.60
39899;DHT22;25571;47.876;10.642;2023-02-01T13:54:26;6.50;94.50
39899;DHT22;25571;47.876;10.642;2023-02-01T13:56:52;6.50;94.60
39899;DHT22;25571;47.876;10.642;2023-02-01T14:05:06;6.40;94.70
39899;DHT22;25571;47.876;10.642;2023-02-01T14:07:33;6.40;94.60
39899;DHT22;25571;47.876;10.642;2023-02-01T14:13:04;6.40;95.10
39899;DHT22;25571;47.876;10.642;2023-02-01T14:15:30;6.40;95.00
39899;DHT22;25571;47.876;10.642;2023-02-01T14:17:56;6.40;95.20
39899;DHT22;25571;47.876;10.642;2023-02-01T14:20:40;6.40;94.90
39899;DHT22;25571;47.876;10.642;2023-02-01T14:23:15;6.40;95.10
39899;DHT22;25571;47.876;10.642;2023-02-01T14:25:42;6.30;95.10
39899;DHT22;25571;47.876;10.642;2023-02-01T14:28:30;6.30;95.30
39899;DHT22;25571;47.876;10.642;2023-02-01T14:30:57;6.30;95.30
39899;DHT22;25571;47.876;10.642;2023-02-01T14:33:26;6.30;95.10
39899;DHT22;25571;47.876;10.642;2023-02-01T14:36:06;6.30;95.30
39899;DHT22;25571;47.876;10.642;2023-02-01T14:38:34;6.30;95.40
39899;DHT22;25571;47.876;10.642;2023-02-01T14:41:24;6.30;95.20
39899;DHT22;25571;47.876;10.642;2023-02-01T14:47:09;6.40;95.20
39899;DHT22;25571;47.876;10.642;2023-02-01T14:49:49;6.30;95.10
39899;DHT22;25571;47.876;10.642;2023-02-01T14:52:19;6.30;94.70
39899;DHT22;25571;47.876;10.642;2023-02-01T14:54:54;6.30;94.90
39899;DHT22;25571;47.876;10.642;2023-02-01T14:57:23;6.20;94.80
39899;DHT22;25571;47.876;10.642;2023-02-01T15:00:00;6.20;94.60
39899;DHT22;25571;47.876;10.642;2023-02-01T15:02:31;6.20;94.60
39899;DHT22;25571;47.876;10.642;2023-02-01T15:04:59;6.20;94.30
39899;DHT22;25571;47.876;10.642;2023-02-01T15:07:26;6.10;93.90
39899;DHT22;25571;47.876;10.642;2023-02-01T15:09:54;6.00;94.00
39899;DHT22;25571;47.876;10.642;2023-02-01T15:12:28;6.10;94.10
39899;DHT22;25571;47.876;10.642;2023-02-01T15:15:15;6.00;93.60
39899;DHT22;25571;47.876;10.642;2023-02-01T15:17:53;6.00;93.60
39899;DHT22;25571;47.876;10.642;2023-02-01T15:20:31;6.00;93.70
39899;DHT22;25571;47.876;10.642;2023-02-01T15:23:02;6.00;93.40
39899;DHT22;25571;47.876;10.642;2023-02-01T15:25:36;6.00;93.20
39899;DHT22;25571;47.876;10.642;2023-02-01T15:28:03;6.00;93.30
39899;DHT22;25571;47.876;10.642;2023-02-01T15:30:33;6.00;93.10
39899;DHT22;25571;47.876;10.642;2023-02-01T15:35:47;6.00;93.00
39899;DHT22;25571;47.876;10.642;2023-02-01T15:43:22;6.00;93.20
39899;DHT22;25571;47.876;10.642;2023-02-01T15:45:48;6.00;93.20
39899;DHT22;25571;47.876;10.642;2023-02-01T15:48:21;6.00;93.00
39899;DHT22;25571;47.876;10.642;2023-02-01T15:50:48;6.00;93.10
39899;DHT22;25571;47.876;10.642;2023-02-01T15:53:19;6.00;93.30
39899;DHT22;25571;47.876;10.642;2023-02-01T15:55:46;6.00;93.30
39899;DHT22;25571;47.876;10.642;2023-02-01T15:58:21;6.00;93.00
39899;DHT22;25571;47.876;10.642;2023-02-01T16:00:55;6.00;93.20
39899;DHT22;25571;47.876;10.642;2023-02-01T16:03:27;6.00;93.30
39899;DHT22;25571;47.876;10.642;2023-02-01T16:05:58;5.90;93.00
39899;DHT22;25571;47.876;10.642;2023-02-01T16:08:27;5.90;93.00
39899;DHT22;25571;47.876;10.642;2023-02-01T16:11:32;6.00;93.10
39899;DHT22;25571;47.876;10.642;2023-02-01T16:13:59;6.00;92.90
39899;DHT22;25571;47.876;10.642;2023-02-01T16:16:26;6.00;92.90
39899;DHT22;25571;47.876;10.642;2023-02-01T16:18:52;6.00;92.70
39899;DHT22;25571;47.876;10.642;2023-02-01T16:21:18;6.00;92.80
39899;DHT22;25571;47.876;10.642;2023-02-01T16:23:43;6.00;92.90
39899;DHT22;25571;47.876;10.642;2023-02-01T16:26:09;6.00;92.60
39899;DHT22;25571;47.876;10.642;2023-02-01T16:28:35;5.90;92.70
39899;DHT22;25571;47.876;10.642;2023-02-01T16:31:01;5.90;92.50
39899;DHT22;25571;47.876;10.642;2023-02-01T16:33:27;5.90;92.70
39899;DHT22;25571;47.876;10.642;2023-02-01T16:35:55;5.80;92.80
39899;DHT22;25571;47.876;10.642;2023-02-01T16:38:25;5.80;92.50
39899;DHT22;25571;47.876;10.642;2023-02-01T16:40:52;5.80;92.50
39899;DHT22;25571;47.876;10.642;2023-02-01T16:43:21;5.80;92.80
39899;DHT22;25571;47.876;10.642;2023-02-01T16:45:48;5.80;92.70
39899;DHT22;25571;47.876;10.642;2023-02-01T16:48:26;5.80;92.80
39899;DHT22;25571;47.876;10.642;2023-02-01T16:51:00;5.80;92.50
39899;DHT22;25571;47.876;10.642;2023-02-01T16:53:28;5.70;92.50
39899;DHT22;25571;47.876;10.642;2023-02-01T16:55:55;5.80;92.60
39899;DHT22;25571;47.876;10.642;2023-02-01T16:58:23;5.80;92.70
39899;DHT22;25571;47.876;10.642;2023-02-01T17:00:49;5.80;92.50
39899;DHT22;25571;47.876;10.642;2023-02-01T17:03:16;5.80;92.50
39899;DHT22;25571;47.876;10.642;2023-02-01T17:05:47;5.70;92.50
39899;DHT22;25571;47.876;10.642;2023-02-01T17:08:28;5.80;92.70
39899;DHT22;25571;47.876;10.642;2023-02-01T17:10:54;5.80;92.70
39899;DHT22;25571;47.876;10.642;2023-02-01T17:13:20;5.80;92.70
39899;DHT22;25571;47.876;10.642;2023-02-01T17:15:50;5.70;92.70
39899;DHT22;25571;47.876;10.642;2023-02-01T17:18:18;5.70;93.10
39899;DHT22;25571;47.876;10.642;2023-02-01T17:20:44;5.70;93.20
39899;DHT22;25571;47.876;10.642;2023-02-01T17:23:11;5.70;93.20
39899;DHT22;25571;47.876;10.642;2023-02-01T17:25:37;5.70;93.20
39899;DHT22;25571;47.876;10.642;2023-02-01T17:28:03;5.70;93.00
39899;DHT22;25571;47.876;10.642;2023-02-01T17:30:29;5.70;93.10
39899;DHT22;25571;47.876;10.642;2023-02-01T17:32:56;5.80;93.10
39899;DHT22;25571;47.876;10.642;2023-02-01T17:35:24;5.70;93.20
39899;DHT22;25571;47.876;10.642;2023-02-01T17:37:51;5.70;92.80
39899;DHT22;25571;47.876;10.642;2023-02-01T17:40:16;5.70;93.10
39899;DHT22;25571;47.876;10.642;2023-02-01T17:42:42;5.70;93.20
39899;DHT22;25571;47.876;10.642;2023-02-01T17:45:35;5.70;93.00
39899;DHT22;25571;47.876;10.642;2023-02-01T17:48:05;5.70;92.70